sensor_id;sensor_type;location;lat;lon;timestamp;P1;durP1;ratioP1;P2;durP2;ratioP2
54241;SDS011;40156;51.080;17.082;2023-04-22T00:00:31;17.17;;;8.75;;
54241;SDS011;40156;51.080;17.082;2023-04-22T00:03:14;16.48;;;9.20;;
54241;SDS011;40156;51.080;17.082;2023-04-22T00:05:42;20.17;;;10.43;;
54241;SDS011;40156;51.080;17.082;2023-04-22T00:08:10;22.48;;;10.70;;
54241;SDS011;40156;51.080;17.082;2023-04-22T00:10:37;21.95;;;10.82;;
54241;SDS011;40156;51.080;17.082;2023-04-22T00:13:04;22.98;;;11.00;;
54241;SDS011;40156;51.080;17.082;2023-04-22T00:15:32;27.00;;;10.85;;
54241;SDS011;40156;51.080;17.082;2023-04-22T00:17:59;22.20;;;10.93;;
54241;SDS011;40156;51.080;17.082;2023-04-22T00:20:27;23.08;;;11.35;;
54241;SDS011;40156;51.080;17.082;2023-04-22T00:22:54;19.50;;;9.90;;
54241;SDS011;40156;51.080;17.082;2023-04-22T00:25:22;25.38;;;10.05;;
54241;SDS011;40156;51.080;17.082;2023-04-22T00:27:49;20.10;;;9.20;;
54241;SDS011;40156;51.080;17.082;2023-04-22T00:30:16;20.95;;;9.10;;
54241;SDS011;40156;51.080;17.082;2023-04-22T00:32:44;19.58;;;10.20;;
54241;SDS011;40156;51.080;17.082;2023-04-22T00:35:30;19.77;;;10.30;;
54241;SDS011;40156;51.080;17.082;2023-04-22T00:37:57;23.42;;;9.65;;
54241;SDS011;40156;51.080;17.082;2023-04-22T00:40:25;22.05;;;10.02;;
54241;SDS011;40156;51.080;17.082;2023-04-22T00:42:52;20.60;;;9.93;;
54241;SDS011;40156;51.080;17.082;2023-04-22T00:45:20;28.42;;;10.13;;
54241;SDS011;40156;51.080;17.082;2023-04-22T00:47:48;23.50;;;10.07;;
54241;SDS011;40156;51.080;17.082;2023-04-22T00:50:15;28.10;;;10.35;;
54241;SDS011;40156;51.080;17.082;2023-04-22T00:52:43;24.27;;;9.70;;
54241;SDS011;40156;51.080;17.082;2023-04-22T00:55:10;19.83;;;10.50;;
54241;SDS011;40156;51.080;17.082;2023-04-22T00:57:38;19.40;;;10.30;;
54241;SDS011;40156;51.080;17.082;2023-04-22T01:00:06;20.45;;;9.57;;
54241;SDS011;40156;51.080;17.082;2023-04-22T01:02:33;18.83;;;9.60;;
54241;SDS011;40156;51.080;17.082;2023-04-22T01:05:01;23.63;;;9.05;;
54241;SDS011;40156;51.080;17.082;2023-04-22T01:07:28;20.55;;;9.32;;
54241;SDS011;40156;51.080;17.082;2023-04-22T01:09:56;21.45;;;10.15;;
54241;SDS011;40156;51.080;17.082;2023-04-22T01:12:23;18.25;;;9.68;;
54241;SDS011;40156;51.080;17.082;2023-04-22T01:14:51;24.23;;;11.13;;
54241;SDS011;40156;51.080;17.082;2023-04-22T01:17:18;26.65;;;10.32;;
54241;SDS011;40156;51.080;17.082;2023-04-22T01:19:46;22.95;;;10.55;;
54241;SDS011;40156;51.080;17.082;2023-04-22T01:22:13;23.38;;;10.95;;
54241;SDS011;40156;51.080;17.082;2023-04-22T01:24:41;18.05;;;8.93;;
54241;SDS011;40156;51.080;17.082;2023-04-22T01:27:08;26.42;;;10.25;;
54241;SDS011;40156;51.080;17.082;2023-04-22T01:29:36;21.23;;;10.32;;
54241;SDS011;40156;51.080;17.082;2023-04-22T01:32:05;23.63;;;10.65;;
54241;SDS011;40156;51.080;17.082;2023-04-22T01:34:34;21.08;;;10.98;;
54241;SDS011;40156;51.080;17.082;2023-04-22T01:37:01;25.25;;;11.07;;
54241;SDS011;40156;51.080;17.082;2023-04-22T01:39:29;18.83;;;9.13;;
54241;SDS011;40156;51.080;17.082;2023-04-22T01:41:56;19.27;;;10.00;;
54241;SDS011;40156;51.080;17.082;2023-04-22T01:44:24;24.23;;;11.27;;
54241;SDS011;40156;51.080;17.082;2023-04-22T01:46:51;21.33;;;11.07;;
54241;SDS011;40156;51.080;17.082;2023-04-22T01:49:19;24.00;;;9.85;;
54241;SDS011;40156;51.080;17.082;2023-04-22T01:51:47;26.95;;;10.80;;
54241;SDS011;40156;51.080;17.082;2023-04-22T01:54:14;24.25;;;10.55;;
54241;SDS011;40156;51.080;17.082;2023-04-22T01:56:47;21.52;;;9.90;;
54241;SDS011;40156;51.080;17.082;2023-04-22T01:59:15;23.13;;;10.90;;
54241;SDS011;40156;51.080;17.082;2023-04-22T02:01:42;21.77;;;10.05;;
54241;SDS011;40156;51.080;17.082;2023-04-22T02:04:10;22.70;;;11.63;;
54241;SDS011;40156;51.080;17.082;2023-04-22T02:06:37;24.13;;;12.20;;
54241;SDS011;40156;51.080;17.082;2023-04-22T02:09:05;18.10;;;9.27;;
54241;SDS011;40156;51.080;17.082;2023-04-22T02:11:32;25.02;;;10.98;;
54241;SDS011;40156;51.080;17.082;2023-04-22T02:14:00;18.60;;;10.57;;
54241;SDS011;40156;51.080;17.082;2023-04-22T02:16:27;23.80;;;10.50;;
54241;SDS011;40156;51.080;17.082;2023-04-22T02:18:55;28.10;;;12.20;;
54241;SDS011;40156;51.080;17.082;2023-04-22T02:21:22;22.05;;;9.82;;
54241;SDS011;40156;51.080;17.082;2023-04-22T02:23:50;23.65;;;11.27;;
54241;SDS011;40156;51.080;17.082;2023-04-22T02:26:17;29.33;;;12.02;;
54241;SDS011;40156;51.080;17.082;2023-04-22T02:28:45;22.42;;;11.27;;
54241;SDS011;40156;51.080;17.082;2023-04-22T02:31:12;29.25;;;10.65;;
54241;SDS011;40156;51.080;17.082;2023-04-22T02:33:40;20.83;;;10.55;;
54241;SDS011;40156;51.080;17.082;2023-04-22T02:36:07;24.48;;;10.95;;
54241;SDS011;40156;51.080;17.082;2023-04-22T02:38:35;21.25;;;10.30;;
54241;SDS011;40156;51.080;17.082;2023-04-22T02:41:02;27.55;;;9.98;;
54241;SDS011;40156;51.080;17.082;2023-04-22T02:43:30;21.10;;;10.70;;
54241;SDS011;40156;51.080;17.082;2023-04-22T02:45:57;23.13;;;10.68;;
54241;SDS011;40156;51.080;17.082;2023-04-22T02:48:25;23.25;;;10.65;;
54241;SDS011;40156;51.080;17.082;2023-04-22T02:50:52;27.58;;;11.27;;
54241;SDS011;40156;51.080;17.082;2023-04-22T02:53:20;22.80;;;10.73;;
54241;SDS011;40156;51.080;17.082;2023-04-22T02:55:47;24.73;;;11.45;;
54241;SDS011;40156;51.080;17.082;2023-04-22T02:58:15;26.60;;;11.63;;
54241;SDS011;40156;51.080;17.082;2023-04-22T03:00:42;22.65;;;10.95;;
54241;SDS011;40156;51.080;17.082;2023-04-22T03:03:28;22.00;;;10.63;;
54241;SDS011;40156;51.080;17.082;2023-04-22T03:05:56;25.13;;;11.40;;
54241;SDS011;40156;51.080;17.082;2023-04-22T03:08:24;22.00;;;10.82;;
54241;SDS011;40156;51.080;17.082;2023-04-22T03:10:53;29.42;;;11.52;;
54241;SDS011;40156;51.080;17.082;2023-04-22T03:13:20;22.15;;;11.82;;
54241;SDS011;40156;51.080;17.082;2023-04-22T03:15:48;20.98;;;11.05;;
54241;SDS011;40156;51.080;17.082;2023-04-22T03:18:15;21.30;;;11.75;;
54241;SDS011;40156;51.080;17.082;2023-04-22T03:20:43;23.38;;;11.45;;
54241;SDS011;40156;51.080;17.082;2023-04-22T03:23:11;23.48;;;11.30;;
54241;SDS011;40156;51.080;17.082;2023-04-22T03:25:38;27.42;;;11.43;;
54241;SDS011;40156;51.080;17.082;2023-04-22T03:28:05;19.75;;;9.77;;
54241;SDS011;40156;51.080;17.082;2023-04-22T03:30:33;23.67;;;11.18;;
54241;SDS011;40156;51.080;17.082;2023-04-22T03:33:00;27.92;;;12.23;;
54241;SDS011;40156;51.080;17.082;2023-04-22T03:35:28;22.10;;;10.90;;
54241;SDS011;40156;51.080;17.082;2023-04-22T03:37:55;22.52;;;11.43;;
54241;SDS011;40156;51.080;17.082;2023-04-22T03:40:22;24.40;;;11.50;;
54241;SDS011;40156;51.080;17.082;2023-04-22T03:42:50;21.65;;;10.40;;
54241;SDS011;40156;51.080;17.082;2023-04-22T03:45:17;21.08;;;11.13;;
54241;SDS011;40156;51.080;17.082;2023-04-22T03:47:45;22.27;;;10.35;;
54241;SDS011;40156;51.080;17.082;2023-04-22T03:50:12;23.90;;;10.60;;
54241;SDS011;40156;51.080;17.082;2023-04-22T03:52:40;21.42;;;10.35;;
54241;SDS011;40156;51.080;17.082;2023-04-22T03:55:08;22.05;;;10.63;;
54241;SDS011;40156;51.080;17.082;2023-04-22T03:57:35;25.15;;;10.82;;
54241;SDS011;40156;51.080;17.082;2023-04-22T04:00:03;22.58;;;10.85;;
54241;SDS011;40156;51.080;17.082;2023-04-22T04:02:31;21.58;;;10.48;;
54241;SDS011;40156;51.080;17.082;2023-04-22T04:04:58;21.13;;;10.18;;
54241;SDS011;40156;51.080;17.082;2023-04-22T04:07:26;20.15;;;10.50;;
54241;SDS011;40156;51.080;17.082;2023-04-22T04:09:54;22.33;;;10.73;;
54241;SDS011;40156;51.080;17.082;2023-04-22T04:12:21;19.80;;;10.30;;
54241;SDS011;40156;51.080;17.082;2023-04-22T04:14:48;22.50;;;10.27;;
54241;SDS011;40156;51.080;17.082;2023-04-22T04:17:16;27.02;;;9.98;;
54241;SDS011;40156;51.080;17.082;2023-04-22T04:19:43;21.58;;;10.57;;
54241;SDS011;40156;51.080;17.082;2023-04-22T04:22:11;17.13;;;10.35;;
54241;SDS011;40156;51.080;17.082;2023-04-22T04:24:38;22.13;;;11.30;;
54241;SDS011;40156;51.080;17.082;2023-04-22T04:27:06;22.88;;;10.68;;
54241;SDS011;40156;51.080;17.082;2023-04-22T04:29:34;19.70;;;9.52;;
54241;SDS011;40156;51.080;17.082;2023-04-22T04:32:01;19.92;;;10.00;;
54241;SDS011;40156;51.080;17.082;2023-04-22T04:34:29;19.88;;;10.20;;
54241;SDS011;40156;51.080;17.082;2023-04-22T04:36:56;20.67;;;9.88;;
54241;SDS011;40156;51.080;17.082;2023-04-22T04:39:24;21.25;;;10.40;;
54241;SDS011;40156;51.080;17.082;2023-04-22T04:41:51;20.10;;;9.65;;
54241;SDS011;40156;51.080;17.082;2023-04-22T04:44:18;16.80;;;9.02;;
54241;SDS011;40156;51.080;17.082;2023-04-22T04:46:46;18.05;;;9.73;;
54241;SDS011;40156;51.080;17.082;2023-04-22T04:49:14;21.35;;;9.52;;
54241;SDS011;40156;51.080;17.082;2023-04-22T04:51:42;17.00;;;9.30;;
54241;SDS011;40156;51.080;17.082;2023-04-22T04:54:09;21.30;;;9.50;;
54241;SDS011;40156;51.080;17.082;2023-04-22T04:56:36;19.60;;;9.80;;
54241;SDS011;40156;51.080;17.082;2023-04-22T04:59:04;15.27;;;8.88;;
54241;SDS011;40156;51.080;17.082;2023-04-22T05:01:31;17.52;;;9.05;;
54241;SDS011;40156;51.080;17.082;2023-04-22T05:03:59;17.65;;;9.07;;
54241;SDS011;40156;51.080;17.082;2023-04-22T05:06:27;24.05;;;10.43;;
54241;SDS011;40156;51.080;17.082;2023-04-22T05:08:54;22.52;;;11.10;;
54241;SDS011;40156;51.080;17.082;2023-04-22T05:11:24;31.27;;;14.88;;
54241;SDS011;40156;51.080;17.082;2023-04-22T05:13:51;35.30;;;17.42;;
54241;SDS011;40156;51.080;17.082;2023-04-22T05:16:19;22.98;;;13.15;;
54241;SDS011;40156;51.080;17.082;2023-04-22T05:18:46;19.88;;;10.55;;
54241;SDS011;40156;51.080;17.082;2023-04-22T05:21:14;21.45;;;10.82;;
54241;SDS011;40156;51.080;17.082;2023-04-22T05:23:41;22.73;;;12.88;;
54241;SDS011;40156;51.080;17.082;2023-04-22T05:26:08;23.00;;;11.95;;
54241;SDS011;40156;51.080;17.082;2023-04-22T05:28:36;22.27;;;11.93;;
54241;SDS011;40156;51.080;17.082;2023-04-22T05:31:04;19.63;;;10.75;;
54241;SDS011;40156;51.080;17.082;2023-04-22T05:33:32;24.88;;;14.43;;
54241;SDS011;40156;51.080;17.082;2023-04-22T05:35:59;17.58;;;9.80;;
54241;SDS011;40156;51.080;17.082;2023-04-22T05:38:26;15.43;;;9.25;;
54241;SDS011;40156;51.080;17.082;2023-04-22T05:40:54;18.02;;;10.18;;
54241;SDS011;40156;51.080;17.082;2023-04-22T05:43:21;16.85;;;10.13;;
54241;SDS011;40156;51.080;17.082;2023-04-22T05:45:49;18.13;;;9.77;;
54241;SDS011;40156;51.080;17.082;2023-04-22T05:48:16;17.17;;;9.27;;
54241;SDS011;40156;51.080;17.082;2023-04-22T05:50:43;24.58;;;14.65;;
54241;SDS011;40156;51.080;17.082;2023-04-22T05:53:11;16.48;;;9.57;;
54241;SDS011;40156;51.080;17.082;2023-04-22T05:55:38;17.17;;;9.75;;
54241;SDS011;40156;51.080;17.082;2023-04-22T05:58:05;17.30;;;9.80;;
54241;SDS011;40156;51.080;17.082;2023-04-22T06:00:33;14.88;;;8.88;;
54241;SDS011;40156;51.080;17.082;2023-04-22T06:03:00;17.80;;;9.68;;
54241;SDS011;40156;51.080;17.082;2023-04-22T06:05:28;14.35;;;9.00;;
54241;SDS011;40156;51.080;17.082;2023-04-22T06:07:56;14.32;;;8.60;;
54241;SDS011;40156;51.080;17.082;2023-04-22T06:10:23;13.38;;;9.05;;
54241;SDS011;40156;51.080;17.082;2023-04-22T06:12:50;15.15;;;8.60;;
54241;SDS011;40156;51.080;17.082;2023-04-22T06:15:18;15.30;;;9.02;;
54241;SDS011;40156;51.080;17.082;2023-04-22T06:17:46;15.13;;;9.77;;
54241;SDS011;40156;51.080;17.082;2023-04-22T06:20:14;12.48;;;8.88;;
54241;SDS011;40156;51.080;17.082;2023-04-22T06:22:41;15.40;;;9.43;;
54241;SDS011;40156;51.080;17.082;2023-04-22T06:25:09;16.90;;;9.07;;
54241;SDS011;40156;51.080;17.082;2023-04-22T06:27:36;12.98;;;8.32;;
54241;SDS011;40156;51.080;17.082;2023-04-22T06:30:04;17.23;;;9.18;;
54241;SDS011;40156;51.080;17.082;2023-04-22T06:32:31;16.85;;;8.45;;
54241;SDS011;40156;51.080;17.082;2023-04-22T06:34:59;14.95;;;9.00;;
54241;SDS011;40156;51.080;17.082;2023-04-22T06:37:26;16.17;;;8.75;;
54241;SDS011;40156;51.080;17.082;2023-04-22T06:39:53;16.75;;;8.55;;
54241;SDS011;40156;51.080;17.082;2023-04-22T06:42:23;15.18;;;8.77;;
54241;SDS011;40156;51.080;17.082;2023-04-22T06:44:58;12.15;;;8.35;;
54241;SDS011;40156;51.080;17.082;2023-04-22T06:47:25;14.82;;;8.75;;
54241;SDS011;40156;51.080;17.082;2023-04-22T06:49:53;12.52;;;8.25;;
54241;SDS011;40156;51.080;17.082;2023-04-22T06:52:20;13.75;;;10.10;;
54241;SDS011;40156;51.080;17.082;2023-04-22T06:54:50;16.58;;;9.48;;
54241;SDS011;40156;51.080;17.082;2023-04-22T06:57:17;18.25;;;10.27;;
54241;SDS011;40156;51.080;17.082;2023-04-22T06:59:45;15.15;;;9.55;;
54241;SDS011;40156;51.080;17.082;2023-04-22T07:02:13;16.45;;;9.05;;
54241;SDS011;40156;51.080;17.082;2023-04-22T07:04:41;16.98;;;9.73;;
54241;SDS011;40156;51.080;17.082;2023-04-22T07:07:10;15.68;;;9.48;;
54241;SDS011;40156;51.080;17.082;2023-04-22T07:09:38;18.38;;;10.55;;
54241;SDS011;40156;51.080;17.082;2023-04-22T07:12:06;19.77;;;10.35;;
54241;SDS011;40156;51.080;17.082;2023-04-22T07:14:33;19.05;;;10.38;;
54241;SDS011;40156;51.080;17.082;2023-04-22T07:17:01;17.23;;;10.93;;
54241;SDS011;40156;51.080;17.082;2023-04-22T07:19:28;14.27;;;10.25;;
54241;SDS011;40156;51.080;17.082;2023-04-22T07:21:56;13.40;;;9.75;;
54241;SDS011;40156;51.080;17.082;2023-04-22T07:24:23;15.25;;;10.55;;
54241;SDS011;40156;51.080;17.082;2023-04-22T07:26:51;17.63;;;10.98;;
54241;SDS011;40156;51.080;17.082;2023-04-22T07:29:18;14.52;;;11.18;;
54241;SDS011;40156;51.080;17.082;2023-04-22T07:31:45;15.02;;;9.82;;
54241;SDS011;40156;51.080;17.082;2023-04-22T07:34:13;13.77;;;9.65;;
54241;SDS011;40156;51.080;17.082;2023-04-22T07:36:40;13.00;;;9.90;;
54241;SDS011;40156;51.080;17.082;2023-04-22T07:39:08;18.40;;;9.55;;
54241;SDS011;40156;51.080;17.082;2023-04-22T07:41:35;19.52;;;9.70;;
54241;SDS011;40156;51.080;17.082;2023-04-22T07:44:03;13.15;;;9.52;;
54241;SDS011;40156;51.080;17.082;2023-04-22T07:46:30;14.90;;;9.05;;
54241;SDS011;40156;51.080;17.082;2023-04-22T07:48:58;12.18;;;9.30;;
54241;SDS011;40156;51.080;17.082;2023-04-22T07:51:25;13.98;;;9.77;;
54241;SDS011;40156;51.080;17.082;2023-04-22T07:53:53;12.75;;;9.05;;
54241;SDS011;40156;51.080;17.082;2023-04-22T07:56:20;15.05;;;9.18;;
54241;SDS011;40156;51.080;17.082;2023-04-22T07:58:47;13.77;;;9.48;;
54241;SDS011;40156;51.080;17.082;2023-04-22T08:01:15;15.90;;;9.48;;
54241;SDS011;40156;51.080;17.082;2023-04-22T08:03:47;14.93;;;10.13;;
54241;SDS011;40156;51.080;17.082;2023-04-22T08:06:15;12.35;;;9.45;;
54241;SDS011;40156;51.080;17.082;2023-04-22T08:08:42;12.07;;;9.40;;
54241;SDS011;40156;51.080;17.082;2023-04-22T08:11:10;12.80;;;9.85;;
54241;SDS011;40156;51.080;17.082;2023-04-22T08:13:37;13.15;;;10.35;;
54241;SDS011;40156;51.080;17.082;2023-04-22T08:16:05;15.30;;;9.75;;
54241;SDS011;40156;51.080;17.082;2023-04-22T08:18:32;14.07;;;9.98;;
54241;SDS011;40156;51.080;17.082;2023-04-22T08:21:00;11.77;;;10.25;;
54241;SDS011;40156;51.080;17.082;2023-04-22T08:23:27;17.75;;;10.70;;
54241;SDS011;40156;51.080;17.082;2023-04-22T08:25:54;11.77;;;8.80;;
54241;SDS011;40156;51.080;17.082;2023-04-22T08:28:22;12.93;;;8.88;;
54241;SDS011;40156;51.080;17.082;2023-04-22T08:30:49;11.80;;;9.07;;
54241;SDS011;40156;51.080;17.082;2023-04-22T08:33:17;13.07;;;9.25;;
54241;SDS011;40156;51.080;17.082;2023-04-22T08:35:44;11.18;;;9.13;;
54241;SDS011;40156;51.080;17.082;2023-04-22T08:38:12;11.75;;;8.60;;
54241;SDS011;40156;51.080;17.082;2023-04-22T08:40:42;12.77;;;9.63;;
54241;SDS011;40156;51.080;17.082;2023-04-22T08:43:10;14.03;;;8.80;;
54241;SDS011;40156;51.080;17.082;2023-04-22T08:45:37;12.43;;;9.80;;
54241;SDS011;40156;51.080;17.082;2023-04-22T08:48:06;13.30;;;8.88;;
54241;SDS011;40156;51.080;17.082;2023-04-22T08:50:35;13.05;;;9.80;;
54241;SDS011;40156;51.080;17.082;2023-04-22T08:53:03;11.15;;;7.82;;
54241;SDS011;40156;51.080;17.082;2023-04-22T08:55:31;14.75;;;8.90;;
54241;SDS011;40156;51.080;17.082;2023-04-22T08:57:59;12.32;;;9.50;;
54241;SDS011;40156;51.080;17.082;2023-04-22T09:00:26;11.73;;;9.35;;
54241;SDS011;40156;51.080;17.082;2023-04-22T09:02:54;12.98;;;9.48;;
54241;SDS011;40156;51.080;17.082;2023-04-22T09:05:22;10.70;;;7.97;;
54241;SDS011;40156;51.080;17.082;2023-04-22T09:07:54;11.00;;;7.97;;
54241;SDS011;40156;51.080;17.082;2023-04-22T09:10:21;10.93;;;7.10;;
54241;SDS011;40156;51.080;17.082;2023-04-22T09:12:51;9.50;;;6.57;;
54241;SDS011;40156;51.080;17.082;2023-04-22T09:15:19;6.47;;;5.88;;
54241;SDS011;40156;51.080;17.082;2023-04-22T09:17:49;8.70;;;6.90;;
54241;SDS011;40156;51.080;17.082;2023-04-22T09:20:17;9.90;;;6.72;;
54241;SDS011;40156;51.080;17.082;2023-04-22T09:22:45;8.80;;;6.90;;
54241;SDS011;40156;51.080;17.082;2023-04-22T09:25:16;9.10;;;5.75;;
54241;SDS011;40156;51.080;17.082;2023-04-22T09:27:51;10.90;;;6.20;;
54241;SDS011;40156;51.080;17.082;2023-04-22T09:30:22;9.60;;;6.18;;
54241;SDS011;40156;51.080;17.082;2023-04-22T09:32:50;9.18;;;6.35;;
54241;SDS011;40156;51.080;17.082;2023-04-22T09:37:51;7.50;;;4.82;;
54241;SDS011;40156;51.080;17.082;2023-04-22T09:40:19;4.40;;;4.00;;
54241;SDS011;40156;51.080;17.082;2023-04-22T09:42:50;7.03;;;4.50;;
54241;SDS011;40156;51.080;17.082;2023-04-22T09:45:27;7.35;;;5.00;;
54241;SDS011;40156;51.080;17.082;2023-04-22T09:47:55;7.97;;;4.45;;
54241;SDS011;40156;51.080;17.082;2023-04-22T09:50:23;3.95;;;3.55;;
54241;SDS011;40156;51.080;17.082;2023-04-22T09:53:10;7.72;;;4.32;;
54241;SDS011;40156;51.080;17.082;2023-04-22T09:55:38;4.72;;;3.90;;
54241;SDS011;40156;51.080;17.082;2023-04-22T09:58:08;5.07;;;3.15;;
54241;SDS011;40156;51.080;17.082;2023-04-22T10:00:57;7.90;;;3.90;;
54241;SDS011;40156;51.080;17.082;2023-04-22T10:03:25;4.65;;;4.05;;
54241;SDS011;40156;51.080;17.082;2023-04-22T10:05:52;4.32;;;3.47;;
54241;SDS011;40156;51.080;17.082;2023-04-22T10:08:20;8.18;;;4.18;;
54241;SDS011;40156;51.080;17.082;2023-04-22T10:10:47;7.65;;;4.40;;
54241;SDS011;40156;51.080;17.082;2023-04-22T10:13:14;5.93;;;3.78;;
54241;SDS011;40156;51.080;17.082;2023-04-22T10:15:47;7.10;;;5.15;;
54241;SDS011;40156;51.080;17.082;2023-04-22T10:18:17;4.50;;;3.85;;
54241;SDS011;40156;51.080;17.082;2023-04-22T10:20:46;5.43;;;3.90;;
54241;SDS011;40156;51.080;17.082;2023-04-22T10:23:18;4.88;;;3.80;;
54241;SDS011;40156;51.080;17.082;2023-04-22T10:25:49;6.95;;;4.68;;
54241;SDS011;40156;51.080;17.082;2023-04-22T10:28:19;4.38;;;3.65;;
54241;SDS011;40156;51.080;17.082;2023-04-22T10:30:47;5.35;;;4.03;;
54241;SDS011;40156;51.080;17.082;2023-04-22T10:38:38;4.43;;;3.40;;
54241;SDS011;40156;51.080;17.082;2023-04-22T10:41:06;5.25;;;3.90;;
54241;SDS011;40156;51.080;17.082;2023-04-22T10:44:08;5.22;;;3.35;;
54241;SDS011;40156;51.080;17.082;2023-04-22T10:48:58;6.43;;;3.67;;
54241;SDS011;40156;51.080;17.082;2023-04-22T10:54:05;4.53;;;3.10;;
54241;SDS011;40156;51.080;17.082;2023-04-22T10:56:33;4.82;;;3.80;;
54241;SDS011;40156;51.080;17.082;2023-04-22T10:59:14;6.25;;;3.78;;
54241;SDS011;40156;51.080;17.082;2023-04-22T11:01:41;7.43;;;3.88;;
54241;SDS011;40156;51.080;17.082;2023-04-22T11:04:26;7.68;;;3.75;;
54241;SDS011;40156;51.080;17.082;2023-04-22T11:09:41;4.28;;;3.70;;
54241;SDS011;40156;51.080;17.082;2023-04-22T11:12:40;7.80;;;3.65;;
54241;SDS011;40156;51.080;17.082;2023-04-22T11:17:35;5.20;;;3.47;;
54241;SDS011;40156;51.080;17.082;2023-04-22T11:20:03;8.30;;;3.85;;
54241;SDS011;40156;51.080;17.082;2023-04-22T11:22:34;4.25;;;3.40;;
54241;SDS011;40156;51.080;17.082;2023-04-22T11:25:03;5.10;;;3.70;;
54241;SDS011;40156;51.080;17.082;2023-04-22T11:27:33;3.45;;;2.92;;
54241;SDS011;40156;51.080;17.082;2023-04-22T11:30:01;9.57;;;4.07;;
54241;SDS011;40156;51.080;17.082;2023-04-22T11:32:29;5.53;;;3.53;;
54241;SDS011;40156;51.080;17.082;2023-04-22T11:34:56;6.13;;;4.32;;
54241;SDS011;40156;51.080;17.082;2023-04-22T11:37:24;4.30;;;3.90;;
54241;SDS011;40156;51.080;17.082;2023-04-22T11:39:51;4.85;;;3.70;;
54241;SDS011;40156;51.080;17.082;2023-04-22T11:42:38;4.90;;;3.55;;
54241;SDS011;40156;51.080;17.082;2023-04-22T11:45:06;4.85;;;4.05;;
54241;SDS011;40156;51.080;17.082;2023-04-22T11:47:34;7.40;;;4.40;;
54241;SDS011;40156;51.080;17.082;2023-04-22T11:50:03;6.78;;;4.43;;
54241;SDS011;40156;51.080;17.082;2023-04-22T11:52:47;9.13;;;4.90;;
54241;SDS011;40156;51.080;17.082;2023-04-22T11:55:19;6.70;;;3.80;;
54241;SDS011;40156;51.080;17.082;2023-04-22T12:00:14;5.03;;;4.00;;
54241;SDS011;40156;51.080;17.082;2023-04-22T12:02:42;7.82;;;4.65;;
54241;SDS011;40156;51.080;17.082;2023-04-22T12:05:10;8.27;;;3.60;;
54241;SDS011;40156;51.080;17.082;2023-04-22T12:07:38;5.38;;;4.03;;
54241;SDS011;40156;51.080;17.082;2023-04-22T12:10:06;5.25;;;3.97;;
54241;SDS011;40156;51.080;17.082;2023-04-22T12:12:33;9.30;;;4.65;;
54241;SDS011;40156;51.080;17.082;2023-04-22T12:15:09;5.18;;;3.55;;
54241;SDS011;40156;51.080;17.082;2023-04-22T12:17:40;4.38;;;3.42;;
54241;SDS011;40156;51.080;17.082;2023-04-22T12:20:10;8.02;;;3.92;;
54241;SDS011;40156;51.080;17.082;2023-04-22T12:22:38;6.78;;;3.67;;
54241;SDS011;40156;51.080;17.082;2023-04-22T12:25:05;5.75;;;3.58;;
54241;SDS011;40156;51.080;17.082;2023-04-22T12:27:33;5.07;;;3.78;;
54241;SDS011;40156;51.080;17.082;2023-04-22T12:30:01;6.38;;;4.47;;
54241;SDS011;40156;51.080;17.082;2023-04-22T12:32:28;4.82;;;3.33;;
54241;SDS011;40156;51.080;17.082;2023-04-22T12:34:56;4.72;;;3.10;;
54241;SDS011;40156;51.080;17.082;2023-04-22T12:37:23;4.72;;;3.08;;
54241;SDS011;40156;51.080;17.082;2023-04-22T12:39:51;5.80;;;3.58;;
54241;SDS011;40156;51.080;17.082;2023-04-22T12:42:18;4.50;;;3.10;;
54241;SDS011;40156;51.080;17.082;2023-04-22T12:44:46;5.43;;;3.70;;
54241;SDS011;40156;51.080;17.082;2023-04-22T12:47:13;5.18;;;3.53;;
54241;SDS011;40156;51.080;17.082;2023-04-22T12:49:40;7.03;;;3.50;;
54241;SDS011;40156;51.080;17.082;2023-04-22T12:52:10;4.40;;;3.17;;
54241;SDS011;40156;51.080;17.082;2023-04-22T12:54:38;4.72;;;3.20;;
54241;SDS011;40156;51.080;17.082;2023-04-22T12:57:05;4.72;;;3.30;;
54241;SDS011;40156;51.080;17.082;2023-04-22T12:59:33;4.32;;;2.90;;
54241;SDS011;40156;51.080;17.082;2023-04-22T13:02:00;3.80;;;3.20;;
54241;SDS011;40156;51.080;17.082;2023-04-22T13:04:28;7.30;;;3.78;;
54241;SDS011;40156;51.080;17.082;2023-04-22T13:06:55;5.30;;;3.20;;
54241;SDS011;40156;51.080;17.082;2023-04-22T13:09:25;5.57;;;3.15;;
54241;SDS011;40156;51.080;17.082;2023-04-22T13:11:52;3.95;;;3.20;;
54241;SDS011;40156;51.080;17.082;2023-04-22T13:14:19;6.40;;;2.85;;
54241;SDS011;40156;51.080;17.082;2023-04-22T13:16:47;4.32;;;3.13;;
54241;SDS011;40156;51.080;17.082;2023-04-22T13:19:14;7.38;;;3.92;;
54241;SDS011;40156;51.080;17.082;2023-04-22T13:21:42;7.35;;;3.15;;
54241;SDS011;40156;51.080;17.082;2023-04-22T13:24:09;4.32;;;2.90;;
54241;SDS011;40156;51.080;17.082;2023-04-22T13:26:37;5.28;;;2.97;;
54241;SDS011;40156;51.080;17.082;2023-04-22T13:29:04;4.28;;;3.38;;
54241;SDS011;40156;51.080;17.082;2023-04-22T13:31:32;3.13;;;2.50;;
54241;SDS011;40156;51.080;17.082;2023-04-22T13:33:59;3.00;;;2.45;;
54241;SDS011;40156;51.080;17.082;2023-04-22T13:36:27;3.22;;;2.47;;
54241;SDS011;40156;51.080;17.082;2023-04-22T13:38:55;4.47;;;2.90;;
54241;SDS011;40156;51.080;17.082;2023-04-22T13:41:23;5.68;;;3.25;;
54241;SDS011;40156;51.080;17.082;2023-04-22T13:43:50;5.15;;;3.30;;
54241;SDS011;40156;51.080;17.082;2023-04-22T13:46:17;7.55;;;3.30;;
54241;SDS011;40156;51.080;17.082;2023-04-22T13:48:45;9.43;;;3.38;;
54241;SDS011;40156;51.080;17.082;2023-04-22T13:51:13;8.80;;;3.42;;
54241;SDS011;40156;51.080;17.082;2023-04-22T13:53:40;3.90;;;2.80;;
54241;SDS011;40156;51.080;17.082;2023-04-22T13:56:08;5.22;;;3.15;;
54241;SDS011;40156;51.080;17.082;2023-04-22T13:58:35;6.35;;;3.10;;
54241;SDS011;40156;51.080;17.082;2023-04-22T14:01:05;5.05;;;3.33;;
54241;SDS011;40156;51.080;17.082;2023-04-22T14:03:33;5.15;;;3.60;;
54241;SDS011;40156;51.080;17.082;2023-04-22T14:06:01;6.30;;;3.10;;
54241;SDS011;40156;51.080;17.082;2023-04-22T14:08:29;3.95;;;3.00;;
54241;SDS011;40156;51.080;17.082;2023-04-22T14:10:56;3.75;;;2.65;;
54241;SDS011;40156;51.080;17.082;2023-04-22T14:13:25;6.47;;;3.25;;
54241;SDS011;40156;51.080;17.082;2023-04-22T14:15:52;4.38;;;3.00;;
54241;SDS011;40156;51.080;17.082;2023-04-22T14:18:20;4.30;;;2.88;;
54241;SDS011;40156;51.080;17.082;2023-04-22T14:20:48;4.18;;;3.13;;
54241;SDS011;40156;51.080;17.082;2023-04-22T14:23:16;4.22;;;3.05;;
54241;SDS011;40156;51.080;17.082;2023-04-22T14:25:44;4.20;;;2.97;;
54241;SDS011;40156;51.080;17.082;2023-04-22T14:28:12;3.85;;;2.78;;
54241;SDS011;40156;51.080;17.082;2023-04-22T14:30:39;4.72;;;3.08;;
54241;SDS011;40156;51.080;17.082;2023-04-22T14:33:08;6.13;;;3.03;;
54241;SDS011;40156;51.080;17.082;2023-04-22T14:35:35;5.95;;;3.13;;
54241;SDS011;40156;51.080;17.082;2023-04-22T14:38:04;5.82;;;3.20;;
54241;SDS011;40156;51.080;17.082;2023-04-22T14:40:32;4.85;;;2.85;;
54241;SDS011;40156;51.080;17.082;2023-04-22T14:43:00;5.53;;;2.97;;
54241;SDS011;40156;51.080;17.082;2023-04-22T14:45:28;5.35;;;2.72;;
54241;SDS011;40156;51.080;17.082;2023-04-22T14:47:56;4.00;;;2.80;;